Blanco, Texas
Current Conditions -  °F | °C
As of 9:55 PM on Wednesday 22 Oct 2014 (Local Time) from KDZB Reporting Station
Clear Clear  
Wind Chill: 72°   Ceiling: Unl
Heat Index: 72°   Visibility: 10mi
Dew Point: 58°   Wind: 3mph
Humidity: 60%   Direction: 140°SE
Pressure: 30.11"   Gusts: NA
Location:  30.1°N, 98.42°W
Report Text: KDZB 230255Z AUTO 14003KT 10SM CLR 22/14 A3011 RMK AO2 T02220142
Loading
Personal Weather Stations






























Interactive Weather Map
Tropical Storm Tracking
New forecast layout! Learn more

10-Day Weather Forecast

Advertisements
Track Severe Weather on mobile